Gladiador — EA1DYP — position and weather

sailwx.info

Track history (hours):
 
Tides and Currents Weather Stations Pressure Air Temp Water Temp Dewpoint Dewpoint Depression Visibility Wind Speed Wind Dir Waves Ship Positions

Gladiador

Last reported at 2013-Aug-14 13:28 UTC. Time now 2014-Nov-01 03:24 UTC.
Position N 43°17' W 009°01'.
Warning: this ship's position is years out of date!

Length 10 m.

Type: Sailing vessel. MMSI: 224306590.

Date/timePositionNaut miles runAvg speedWind from/ knotsBaromVisibWave heightAir tempDewpointWater temp
2013-Aug-14 13:28N 43°17' W 009°01'6 6.7
2013-Aug-14 12:33N 43°20' W 008°54'7 6.9
2013-Aug-14 11:30N 43°22' W 008°44'7 6.9
2013-Aug-14 10:33N 43°23' W 008°35'6 6.3
2013-Aug-14 09:33N 43°24' W 008°27'6 6.4
2013-Aug-14 08:34N 43°25' W 008°18'3 0.3
2013-Aug-14 00:16N 43°25' W 008°14'0 0.0
2013-Aug-13 23:28N 43°25' W 008°14'0 0.0
2013-Aug-13 22:28N 43°25' W 008°14'0 0.0
2013-Aug-13 21:10N 43°25' W 008°14'0 0.0
2013-Aug-13 20:16N 43°25' W 008°14'0 0.0
2013-Aug-13 19:28N 43°25' W 008°14'0 0.0
2013-Aug-13 18:22N 43°25' W 008°14'0 0.0
2013-Aug-13 17:28N 43°25' W 008°14'0 0.0
2013-Aug-13 16:28N 43°25' W 008°14'0 0.0
2013-Aug-13 15:28N 43°25' W 008°14'0 0.0
2013-Aug-13 14:28N 43°25' W 008°14'0 0.2
2013-Aug-13 13:33N 43°25' W 008°14'5 4.6
2013-Aug-13 12:33N 43°27' W 008°20'6 5.2
2013-Aug-13 11:26N 43°33' W 008°21'5 6.0
2013-Aug-13 10:33N 43°37' W 008°16'24 1.3
2013-Aug-12 16:28N 43°48' W 007°46'  
Track history (hours):
 
Tides and Currents Weather Stations Pressure Air Temp Water Temp Dewpoint Dewpoint Depression Visibility Wind Speed Wind Dir Waves Ship Positions

Gladiador

Last reported at 2013-Aug-14 13:28 UTC. Time now 2014-Nov-01 03:24 UTC.
Position N 43°17' W 009°01'.
Warning: this ship's position is years out of date!

Length 10 m.

Type: Sailing vessel. MMSI: 224306590.

Date/timePositionNaut miles runAvg speedWind from/ knotsBaromVisibWave heightAir tempDewpointWater temp
2013-Aug-14 13:28N 43°17' W 009°01'6 6.7
2013-Aug-14 12:33N 43°20' W 008°54'7 6.9
2013-Aug-14 11:30N 43°22' W 008°44'7 6.9
2013-Aug-14 10:33N 43°23' W 008°35'6 6.3
2013-Aug-14 09:33N 43°24' W 008°27'6 6.4
2013-Aug-14 08:34N 43°25' W 008°18'3 0.3
2013-Aug-14 00:16N 43°25' W 008°14'0 0.0
2013-Aug-13 23:28N 43°25' W 008°14'0 0.0
2013-Aug-13 22:28N 43°25' W 008°14'0 0.0
2013-Aug-13 21:10N 43°25' W 008°14'0 0.0
2013-Aug-13 20:16N 43°25' W 008°14'0 0.0
2013-Aug-13 19:28N 43°25' W 008°14'0 0.0
2013-Aug-13 18:22N 43°25' W 008°14'0 0.0
2013-Aug-13 17:28N 43°25' W 008°14'0 0.0
2013-Aug-13 16:28N 43°25' W 008°14'0 0.0
2013-Aug-13 15:28N 43°25' W 008°14'0 0.0
2013-Aug-13 14:28N 43°25' W 008°14'0 0.2
2013-Aug-13 13:33N 43°25' W 008°14'5 4.6
2013-Aug-13 12:33N 43°27' W 008°20'6 5.2
2013-Aug-13 11:26N 43°33' W 008°21'5 6.0
2013-Aug-13 10:33N 43°37' W 008°16'24 1.3
2013-Aug-12 16:28N 43°48' W 007°46'  

Dump ship's entire track history